Time;durP1;ratioP1;P1;durP2;ratioP2;P2;SDS_P1;SDS_P2;PMS_P1;PMS_P2;Temp;Humidity;BMP_temperature;BMP_pressure;BME280_temperature;BME280_humidity;BME280_pressure;Samples;Min_cycle;Max_cycle;Signal;HPM_P1;HPM_P2
2023/01/20 00:00:10;;;;;;;;;;;18.80;33.20;;;;;;3055434;19;4267;-33
2023/01/20 00:01:11;;;;;;;;;;;18.80;33.20;;;;;;3053841;19;4465;-29
2023/01/20 00:02:12;;;;;;;;;;;18.80;33.20;;;;;;3054413;19;4852;-29
2023/01/20 00:03:12;;;;;;;;;;;18.80;33.20;;;;;;3055573;19;967;-29
2023/01/20 00:04:14;;;;;;;;;;;18.80;33.20;;;;;;3054620;19;4551;-29
2023/01/20 00:05:14;;;;;;;;;;;18.80;33.30;;;;;;3054835;19;4567;-29
2023/01/20 00:06:15;;;;;;;;;;;18.80;33.20;;;;;;3054789;19;4597;-29
2023/01/20 00:07:16;;;;;;;;;;;18.80;33.20;;;;;;3054223;19;4492;-31
2023/01/20 00:08:16;;;;;;;;;;;18.80;33.20;;;;;;3054703;19;4529;-32
2023/01/20 00:09:17;;;;;;;;;;;18.70;33.30;;;;;;3054711;19;4542;-29
2023/01/20 00:10:18;;;;;;;;;;;18.70;33.20;;;;;;3054955;19;4612;-29
2023/01/20 00:11:18;;;;;;;;;;;18.70;33.20;;;;;;3054792;19;4681;-30
2023/01/20 00:12:19;;;;;;;;;;;18.70;33.30;;;;;;3054867;19;4529;-30
2023/01/20 00:13:20;;;;;;;;;;;18.70;33.40;;;;;;3054388;19;4412;-31
2023/01/20 00:14:20;;;;;;;;;;;18.70;33.40;;;;;;3054840;19;4544;-30
2023/01/20 00:15:21;;;;;;;;;;;18.60;33.30;;;;;;3054755;19;4411;-30
2023/01/20 00:16:22;;;;;;;;;;;18.60;33.30;;;;;;3054904;19;4558;-30
2023/01/20 00:17:22;;;;;;;;;;;18.60;33.30;;;;;;3054780;19;4523;-32
2023/01/20 00:18:23;;;;;;;;;;;18.70;33.40;;;;;;3054655;19;4540;-31
2023/01/20 00:19:24;;;;;;;;;;;18.60;33.60;;;;;;3055257;19;4399;-30
2023/01/20 00:20:25;;;;;;;;;;;18.70;33.60;;;;;;3054671;19;4591;-29
2023/01/20 00:21:25;;;;;;;;;;;18.70;33.60;;;;;;3054774;19;4426;-30
2023/01/20 00:22:26;;;;;;;;;;;18.70;33.50;;;;;;3053995;19;4590;-30
2023/01/20 00:23:27;;;;;;;;;;;18.70;33.40;;;;;;3054948;19;4582;-32
2023/01/20 00:24:27;;;;;;;;;;;18.70;33.40;;;;;;3054439;19;4563;-30
2023/01/20 00:25:28;;;;;;;;;;;18.70;33.40;;;;;;3053750;19;4550;-33
2023/01/20 00:26:29;;;;;;;;;;;18.80;33.40;;;;;;3054272;19;4535;-33
2023/01/20 00:27:29;;;;;;;;;;;18.70;33.40;;;;;;3054742;19;4663;-30
2023/01/20 00:28:30;;;;;;;;;;;18.70;33.30;;;;;;3055076;19;4621;-29
2023/01/20 00:29:31;;;;;;;;;;;18.70;33.30;;;;;;3054470;19;4724;-32
2023/01/20 00:30:31;;;;;;;;;;;18.70;33.40;;;;;;3055300;19;4574;-30
2023/01/20 00:31:33;;;;;;;;;;;18.70;33.30;;;;;;3055028;19;4547;-33
2023/01/20 00:32:38;;;;;;;;;;;18.70;33.20;;;;;;3054434;19;4468;-31
2023/01/20 00:33:38;;;;;;;;;;;18.80;33.40;;;;;;3054947;19;4534;-30
2023/01/20 00:34:39;;;;;;;;;;;18.70;33.30;;;;;;3053675;19;4528;-29
2023/01/20 00:35:40;;;;;;;;;;;18.70;33.30;;;;;;3052184;19;4562;-30
2023/01/20 00:36:40;;;;;;;;;;;18.70;33.40;;;;;;3054235;19;4529;-32
2023/01/20 00:37:41;;;;;;;;;;;18.70;33.30;;;;;;3053976;19;4500;-32
2023/01/20 00:38:42;;;;;;;;;;;18.60;33.30;;;;;;3053266;19;4644;-29
2023/01/20 00:39:43;;;;;;;;;;;18.60;33.40;;;;;;3052587;19;4501;-32
2023/01/20 00:40:43;;;;;;;;;;;18.60;33.30;;;;;;3054728;19;4410;-31
2023/01/20 00:41:44;;;;;;;;;;;18.60;33.30;;;;;;3054256;19;4529;-33
2023/01/20 00:42:45;;;;;;;;;;;18.60;33.50;;;;;;3054878;19;4420;-29
2023/01/20 00:43:45;;;;;;;;;;;18.60;33.30;;;;;;3054253;19;4591;-29
2023/01/20 00:44:46;;;;;;;;;;;18.50;33.20;;;;;;3054215;19;4416;-30
2023/01/20 00:45:47;;;;;;;;;;;18.50;33.20;;;;;;3054345;19;4594;-32
2023/01/20 00:46:47;;;;;;;;;;;18.50;33.20;;;;;;3054877;19;4578;-30
2023/01/20 00:47:48;;;;;;;;;;;18.50;33.40;;;;;;3054539;19;4372;-30
2023/01/20 00:48:48;;;;;;;;;;;18.50;33.40;;;;;;3054087;19;4558;-31
2023/01/20 00:49:49;;;;;;;;;;;18.60;33.50;;;;;;3054871;19;4456;-30
2023/01/20 00:50:50;;;;;;;;;;;18.60;33.40;;;;;;3054842;19;4494;-31
2023/01/20 00:51:50;;;;;;;;;;;18.60;33.40;;;;;;3054899;19;4487;-30
2023/01/20 00:52:51;;;;;;;;;;;18.70;33.40;;;;;;3054249;19;4504;-30
2023/01/20 00:53:52;;;;;;;;;;;18.70;33.20;;;;;;3052813;19;4487;-29
2023/01/20 00:54:52;;;;;;;;;;;18.70;33.20;;;;;;3053305;19;4578;-30
2023/01/20 00:55:53;;;;;;;;;;;18.70;33.10;;;;;;3053735;19;4519;-31
2023/01/20 00:56:54;;;;;;;;;;;18.80;33.20;;;;;;3054739;19;4462;-32
2023/01/20 00:57:54;;;;;;;;;;;18.70;33.20;;;;;;3053982;19;4499;-30
2023/01/20 00:58:55;;;;;;;;;;;18.70;33.10;;;;;;3053683;19;4605;-29
2023/01/20 00:59:56;;;;;;;;;;;18.70;33.10;;;;;;3053880;19;4515;-30
2023/01/20 01:00:57;;;;;;;;;;;18.70;33.10;;;;;;3054265;19;4545;-30
2023/01/20 01:01:58;;;;;;;;;;;18.70;33.10;;;;;;3054732;19;4494;-29
2023/01/20 01:02:58;;;;;;;;;;;18.70;33.10;;;;;;3053618;19;4400;-30
2023/01/20 01:03:59;;;;;;;;;;;18.70;33.20;;;;;;3053051;19;4508;-30
2023/01/20 01:05:00;;;;;;;;;;;18.70;33.20;;;;;;3054614;19;4371;-30
2023/01/20 01:06:11;;;;;;;;;;;18.60;33.20;;;;;;3054653;19;4639;-28
2023/01/20 01:07:12;;;;;;;;;;;18.60;33.20;;;;;;3054010;19;4546;-30
2023/01/20 01:08:12;;;;;;;;;;;18.60;33.30;;;;;;3053892;19;4693;-29
2023/01/20 01:09:13;;;;;;;;;;;18.60;33.20;;;;;;3053744;19;4409;-31
2023/01/20 01:10:14;;;;;;;;;;;18.50;33.20;;;;;;3053797;19;4519;-30
2023/01/20 01:11:14;;;;;;;;;;;18.50;33.00;;;;;;3054214;19;928;-30
2023/01/20 01:12:15;;;;;;;;;;;18.50;33.10;;;;;;3053054;19;8099;-30
2023/01/20 01:13:16;;;;;;;;;;;18.50;33.20;;;;;;3052548;19;4565;-30
2023/01/20 01:14:16;;;;;;;;;;;18.50;33.20;;;;;;3053488;19;4425;-29
2023/01/20 01:15:17;;;;;;;;;;;18.50;33.20;;;;;;3053438;19;4553;-30
2023/01/20 01:16:18;;;;;;;;;;;18.50;33.30;;;;;;3054148;19;4523;-29
2023/01/20 01:17:18;;;;;;;;;;;18.50;33.20;;;;;;3053809;19;4606;-31
2023/01/20 01:18:19;;;;;;;;;;;18.60;33.20;;;;;;3054420;19;4548;-29
2023/01/20 01:19:20;;;;;;;;;;;18.60;33.10;;;;;;3053823;19;4682;-32
2023/01/20 01:20:20;;;;;;;;;;;18.60;33.10;;;;;;3054235;19;4434;-30
2023/01/20 01:21:21;;;;;;;;;;;18.70;33.20;;;;;;3053970;19;4537;-30
2023/01/20 01:22:22;;;;;;;;;;;18.60;33.00;;;;;;3053095;19;4604;-32
2023/01/20 01:23:22;;;;;;;;;;;18.60;33.00;;;;;;3054375;19;4482;-32
2023/01/20 01:24:23;;;;;;;;;;;18.70;33.10;;;;;;3052958;19;4543;-29
2023/01/20 01:25:23;;;;;;;;;;;18.70;33.10;;;;;;3054152;19;4536;-30
2023/01/20 01:26:24;;;;;;;;;;;18.70;33.10;;;;;;3054188;19;4387;-29
2023/01/20 01:27:27;;;;;;;;;;;18.60;33.00;;;;;;3053888;19;4628;-31
2023/01/20 01:28:27;;;;;;;;;;;18.60;33.70;;;;;;3054076;19;4368;-31
2023/01/20 01:29:28;;;;;;;;;;;18.60;33.10;;;;;;3053071;19;4518;-30
2023/01/20 01:30:28;;;;;;;;;;;18.60;33.10;;;;;;3054391;19;4580;-29
2023/01/20 01:31:29;;;;;;;;;;;18.60;33.10;;;;;;3054169;19;4541;-30
2023/01/20 01:32:30;;;;;;;;;;;18.60;33.00;;;;;;3053064;19;4589;-30
2023/01/20 01:33:30;;;;;;;;;;;18.50;33.10;;;;;;3053972;19;4368;-31
2023/01/20 01:34:31;;;;;;;;;;;18.50;33.00;;;;;;3053769;19;4642;-30
2023/01/20 01:35:32;;;;;;;;;;;18.50;33.00;;;;;;3052910;19;4515;-30
2023/01/20 01:36:33;;;;;;;;;;;18.50;33.20;;;;;;3054436;19;4726;-29
2023/01/20 01:37:33;;;;;;;;;;;18.50;33.00;;;;;;3053024;19;4532;-33
2023/01/20 01:38:34;;;;;;;;;;;18.50;33.00;;;;;;3054238;19;4724;-33
2023/01/20 01:39:35;;;;;;;;;;;18.50;33.00;;;;;;3052683;19;4537;-31
2023/01/20 01:40:35;;;;;;;;;;;18.50;33.10;;;;;;3054451;19;4585;-30
2023/01/20 01:41:36;;;;;;;;;;;18.50;33.10;;;;;;3054027;19;4549;-29
2023/01/20 01:42:37;;;;;;;;;;;18.50;33.20;;;;;;3053434;19;4516;-31
2023/01/20 01:43:38;;;;;;;;;;;18.50;33.10;;;;;;3054278;19;4496;-29
2023/01/20 01:44:58;;;;;;;;;;;18.50;33.00;;;;;;3052748;19;4543;-30
2023/01/20 01:45:59;;;;;;;;;;;18.60;33.10;;;;;;3053247;19;4520;-30
2023/01/20 01:47:00;;;;;;;;;;;18.60;33.10;;;;;;3055794;19;4669;-29
2023/01/20 01:48:04;;;;;;;;;;;18.60;33.00;;;;;;3056153;19;4459;-29
2023/01/20 01:49:18;;;;;;;;;;;18.60;33.00;;;;;;3055313;19;5213;-30
2023/01/20 01:50:31;;;;;;;;;;;18.60;32.90;;;;;;3054887;19;4450;-31
2023/01/20 01:51:34;;;;;;;;;;;18.60;32.90;;;;;;3055717;19;4541;-30
2023/01/20 01:52:35;;;;;;;;;;;18.60;32.90;;;;;;3055385;19;4390;-32
2023/01/20 01:53:39;;;;;;;;;;;18.60;32.90;;;;;;3055184;19;4560;-29
2023/01/20 01:54:41;;;;;;;;;;;18.60;32.90;;;;;;3056012;19;4407;-29
2023/01/20 01:55:45;;;;;;;;;;;18.50;32.90;;;;;;3056233;19;4573;-33
2023/01/20 01:56:46;;;;;;;;;;;18.50;32.90;;;;;;3056612;19;4588;-30
2023/01/20 01:57:47;;;;;;;;;;;18.50;33.00;;;;;;3055257;19;4556;-30
2023/01/20 01:58:47;;;;;;;;;;;18.50;33.00;;;;;;3054801;19;4398;-29
2023/01/20 01:59:48;;;;;;;;;;;18.50;33.00;;;;;;3056397;19;4599;-30
2023/01/20 02:00:49;;;;;;;;;;;18.50;33.00;;;;;;3056405;19;4401;-30
2023/01/20 02:01:51;;;;;;;;;;;18.50;32.90;;;;;;3055244;19;4584;-29
2023/01/20 02:02:51;;;;;;;;;;;18.50;32.90;;;;;;3055768;19;4597;-69
2023/01/20 02:03:56;;;;;;;;;;;18.40;32.90;;;;;;3055937;19;5313;-73
2023/01/20 02:04:56;;;;;;;;;;;18.40;32.80;;;;;;3066661;19;4892;-72
2023/01/20 02:05:57;;;;;;;;;;;18.40;32.90;;;;;;3054608;19;5553;-79
2023/01/20 02:07:03;;;;;;;;;;;18.50;33.10;;;;;;3057652;19;4868;-81
2023/01/20 02:08:06;;;;;;;;;;;18.50;33.10;;;;;;3057862;19;4407;-79
2023/01/20 02:09:07;;;;;;;;;;;18.50;33.00;;;;;;3055501;19;4872;-82
2023/01/20 02:10:08;;;;;;;;;;;18.50;32.90;;;;;;3055654;19;914;-78
2023/01/20 02:11:08;;;;;;;;;;;18.60;32.90;;;;;;3057719;19;5023;-77
2023/01/20 02:12:14;;;;;;;;;;;18.60;32.80;;;;;;3056473;19;4719;-79
2023/01/20 02:13:14;;;;;;;;;;;18.60;32.80;;;;;;3056475;19;4852;-77
2023/01/20 02:14:35;;;;;;;;;;;18.60;32.70;;;;;;3056773;19;4876;-77
2023/01/20 02:16:01;;;;;;;;;;;18.60;32.80;;;;;;3056608;19;4899;-78
2023/01/20 02:17:13;;;;;;;;;;;18.60;32.80;;;;;;3054261;19;4292;-80
2023/01/20 02:18:29;;;;;;;;;;;18.60;32.80;;;;;;3056533;19;4824;-81
2023/01/20 02:20:03;;;;;;;;;;;18.60;32.80;;;;;;3055078;19;4390;-77
2023/01/20 02:21:17;;;;;;;;;;;18.50;32.80;;;;;;3057982;19;4399;-79
2023/01/20 02:22:26;;;;;;;;;;;18.50;33.00;;;;;;2953466;19;2004279;-79
2023/01/20 02:24:20;;;;;;;;;;;18.50;33.00;;;;;;3057130;19;5014;-79
2023/01/20 02:25:27;;;;;;;;;;;18.50;32.90;;;;;;2951750;19;2004153;-79
2023/01/20 02:26:57;;;;;;;;;;;18.40;32.80;;;;;;3056167;19;4396;-80
2023/01/20 02:28:19;;;;;;;;;;;18.40;32.80;;;;;;3057367;19;4824;-77
2023/01/20 02:29:38;;;;;;;;;;;18.40;32.80;;;;;;2955140;19;2004154;-77
2023/01/20 02:30:57;;;;;;;;;;;18.40;32.90;;;;;;3057785;19;4826;-79
2023/01/20 02:32:39;;;;;;;;;;;18.50;33.00;;;;;;3056924;19;5635;-77
2023/01/20 02:33:42;;;;;;;;;;;18.50;32.90;;;;;;2953525;19;2004365;-78
2023/01/20 02:34:58;;;;;;;;;;;18.50;32.80;;;;;;3056012;19;4912;-80
2023/01/20 02:36:06;;;;;;;;;;;18.60;32.80;;;;;;3056240;19;4315;-80
2023/01/20 02:37:26;;;;;;;;;;;18.60;32.80;;;;;;3056035;19;4780;-80
2023/01/20 02:38:45;;;;;;;;;;;18.60;32.80;;;;;;3056318;19;4454;-79
2023/01/20 02:39:51;;;;;;;;;;;18.60;32.90;;;;;;3056977;19;4885;-77
2023/01/20 02:41:10;;;;;;;;;;;18.60;32.80;;;;;;3056652;19;4937;-78
2023/01/20 02:42:22;;;;;;;;;;;18.60;32.80;;;;;;3054803;19;5365;-79
2023/01/20 02:43:35;;;;;;;;;;;18.60;32.80;;;;;;3057141;19;4951;-81
2023/01/20 02:44:46;;;;;;;;;;;18.60;32.80;;;;;;3056096;19;4333;-81
2023/01/20 02:46:05;;;;;;;;;;;18.50;32.80;;;;;;3057258;19;5004;-78
2023/01/20 02:47:06;;;;;;;;;;;18.50;33.40;;;;;;3054442;19;4933;-79
2023/01/20 02:48:18;;;;;;;;;;;18.50;32.80;;;;;;3058247;19;5075;-78
2023/01/20 02:49:31;;;;;;;;;;;18.50;32.90;;;;;;3057023;19;4888;-80
2023/01/20 02:50:42;;;;;;;;;;;18.50;32.90;;;;;;3057467;19;4824;-79
2023/01/20 02:51:56;;;;;;;;;;;18.40;32.70;;;;;;3052726;19;4383;-79
2023/01/20 02:52:58;;;;;;;;;;;18.40;32.70;;;;;;3056771;19;4498;-81
2023/01/20 02:54:04;;;;;;;;;;;18.40;32.70;;;;;;3056704;19;4901;-80
2023/01/20 02:55:07;;;;;;;;;;;18.40;32.80;;;;;;3057504;19;5052;-79
2023/01/20 02:56:08;;;;;;;;;;;18.40;32.90;;;;;;3055753;19;5024;-81
2023/01/20 02:57:10;;;;;;;;;;;18.40;32.80;;;;;;3057428;19;4908;-77
2023/01/20 02:58:36;;;;;;;;;;;18.40;32.80;;;;;;3055497;19;4386;-80
2023/01/20 02:59:42;;;;;;;;;;;18.50;32.80;;;;;;3057687;19;4904;-81
2023/01/20 03:00:49;;;;;;;;;;;18.50;32.80;;;;;;3057962;19;4894;-79
2023/01/20 03:01:52;;;;;;;;;;;18.50;32.70;;;;;;3057394;19;4845;-79
2023/01/20 03:02:53;;;;;;;;;;;18.50;32.70;;;;;;3057150;19;4310;-78
2023/01/20 03:03:55;;;;;;;;;;;18.50;32.70;;;;;;3057560;19;4902;-77
2023/01/20 03:05:07;;;;;;;;;;;18.50;32.60;;;;;;3057039;19;5053;-78
2023/01/20 03:06:27;;;;;;;;;;;18.60;32.70;;;;;;3055817;19;6072;-78
2023/01/20 03:07:28;;;;;;;;;;;18.50;32.70;;;;;;3057885;19;4994;-79
2023/01/20 03:08:30;;;;;;;;;;;18.50;32.70;;;;;;3057212;19;4997;-78
2023/01/20 03:09:36;;;;;;;;;;;18.50;32.70;;;;;;3057447;19;4894;-78
2023/01/20 03:10:36;;;;;;;;;;;18.50;32.70;;;;;;3057324;19;5006;-77
2023/01/20 03:11:39;;;;;;;;;;;18.50;32.70;;;;;;3056600;19;4870;-78
2023/01/20 03:13:09;;;;;;;;;;;18.40;33.40;;;;;;3057582;19;4833;-78
2023/01/20 03:14:11;;;;;;;;;;;18.40;32.80;;;;;;3056543;19;4972;-78
2023/01/20 03:15:13;;;;;;;;;;;18.40;32.80;;;;;;3057991;19;4896;-79
2023/01/20 03:16:16;;;;;;;;;;;18.30;32.70;;;;;;3057378;19;4283;-79
2023/01/20 03:17:20;;;;;;;;;;;18.30;32.70;;;;;;3056424;19;4805;-82
2023/01/20 03:18:29;;;;;;;;;;;18.40;32.90;;;;;;3056833;19;4444;-78
2023/01/20 03:19:29;;;;;;;;;;;18.30;32.80;;;;;;3057138;19;4842;-78
2023/01/20 03:20:31;;;;;;;;;;;18.40;32.70;;;;;;3052623;19;4595;-29
2023/01/20 03:21:32;;;;;;;;;;;18.30;32.60;;;;;;3054835;19;4566;-30
2023/01/20 03:22:32;;;;;;;;;;;18.30;32.70;;;;;;3054830;19;4550;-32
2023/01/20 03:23:34;;;;;;;;;;;18.30;32.60;;;;;;3053072;19;4564;-30
2023/01/20 03:24:35;;;;;;;;;;;18.30;32.70;;;;;;3055870;19;4539;-29
2023/01/20 03:25:37;;;;;;;;;;;18.30;32.80;;;;;;3055581;19;4535;-29
2023/01/20 03:26:38;;;;;;;;;;;18.30;32.70;;;;;;3054719;19;4559;-29
2023/01/20 03:27:40;;;;;;;;;;;18.40;32.80;;;;;;3055482;19;4674;-32
2023/01/20 03:28:41;;;;;;;;;;;18.40;32.60;;;;;;3056245;19;4554;-32
2023/01/20 03:29:42;;;;;;;;;;;18.40;32.60;;;;;;3055513;19;4605;-30
2023/01/20 03:30:42;;;;;;;;;;;18.40;32.50;;;;;;3056593;19;4714;-33
2023/01/20 03:31:48;;;;;;;;;;;18.50;32.50;;;;;;3055936;19;4554;-30
2023/01/20 03:32:48;;;;;;;;;;;18.50;32.50;;;;;;3055477;19;4620;-30
2023/01/20 03:33:50;;;;;;;;;;;18.50;32.50;;;;;;3054999;19;4524;-31
2023/01/20 03:34:50;;;;;;;;;;;18.50;32.50;;;;;;3054944;19;4623;-33
2023/01/20 03:35:51;;;;;;;;;;;18.50;32.50;;;;;;3054006;19;4605;-29
2023/01/20 03:36:52;;;;;;;;;;;18.50;32.50;;;;;;3054999;19;4554;-30
2023/01/20 03:37:53;;;;;;;;;;;18.40;32.40;;;;;;3054496;19;4565;-29
2023/01/20 03:38:53;;;;;;;;;;;18.40;32.30;;;;;;3054132;19;4511;-29
2023/01/20 03:39:55;;;;;;;;;;;18.40;32.40;;;;;;3054101;19;4485;-29
2023/01/20 03:41:00;;;;;;;;;;;18.40;32.50;;;;;;3054456;19;4487;-29
2023/01/20 03:42:13;;;;;;;;;;;18.40;32.50;;;;;;3054887;19;4606;-30
2023/01/20 03:43:18;;;;;;;;;;;18.30;32.40;;;;;;3054007;19;4561;-29
2023/01/20 03:44:38;;;;;;;;;;;18.40;32.50;;;;;;3054733;19;4553;-32
2023/01/20 03:45:41;;;;;;;;;;;18.30;32.40;;;;;;3054551;19;4535;-29
2023/01/20 03:46:50;;;;;;;;;;;18.30;32.50;;;;;;3054987;19;4516;-29
2023/01/20 03:48:03;;;;;;;;;;;18.30;32.40;;;;;;3054864;19;4532;-30
2023/01/20 03:49:12;;;;;;;;;;;18.30;32.30;;;;;;3054931;19;4485;-31
2023/01/20 03:50:28;;;;;;;;;;;18.30;32.30;;;;;;3054922;19;4313;-32
2023/01/20 03:51:41;;;;;;;;;;;18.30;32.40;;;;;;2952275;19;2004251;-30
2023/01/20 03:52:51;;;;;;;;;;;18.30;32.40;;;;;;3054772;19;4543;-29
2023/01/20 03:53:54;;;;;;;;;;;18.30;32.50;;;;;;3054863;19;4468;-30
2023/01/20 03:54:59;;;;;;;;;;;18.30;32.40;;;;;;3054608;19;4529;-29
2023/01/20 03:56:04;;;;;;;;;;;18.30;32.40;;;;;;3054593;19;4556;-29
2023/01/20 03:57:08;;;;;;;;;;;18.30;32.40;;;;;;3054794;19;4457;-29
2023/01/20 03:58:17;;;;;;;;;;;18.40;32.40;;;;;;3054187;19;4458;-32
2023/01/20 03:59:17;;;;;;;;;;;18.40;32.30;;;;;;3054350;19;4567;-30
2023/01/20 04:00:19;;;;;;;;;;;18.40;32.30;;;;;;3054382;19;4580;-30
2023/01/20 04:01:23;;;;;;;;;;;18.40;32.30;;;;;;3055636;19;4678;-29
2023/01/20 04:02:24;;;;;;;;;;;18.40;32.30;;;;;;3054318;19;4713;-29
2023/01/20 04:03:29;;;;;;;;;;;18.40;32.20;;;;;;3054062;19;4575;-29
2023/01/20 04:04:29;;;;;;;;;;;18.40;32.30;;;;;;3054767;19;4545;-29
2023/01/20 04:05:30;;;;;;;;;;;18.40;32.90;;;;;;3054591;19;4520;-30
2023/01/20 04:06:31;;;;;;;;;;;18.40;32.30;;;;;;3054720;19;4451;-31
2023/01/20 04:07:31;;;;;;;;;;;18.40;32.30;;;;;;3054143;19;4724;-30
2023/01/20 04:08:33;;;;;;;;;;;18.40;32.30;;;;;;3053610;19;4580;-28
2023/01/20 04:09:35;;;;;;;;;;;18.30;32.20;;;;;;3053798;19;4622;-32
2023/01/20 04:10:38;;;;;;;;;;;18.30;32.30;;;;;;3054442;19;4493;-31
2023/01/20 04:11:38;;;;;;;;;;;18.30;32.30;;;;;;3054267;19;4781;-30
2023/01/20 04:12:39;;;;;;;;;;;18.30;32.40;;;;;;3054551;19;4426;-28
2023/01/20 04:13:39;;;;;;;;;;;18.30;32.40;;;;;;3055150;19;4733;-29
2023/01/20 04:14:40;;;;;;;;;;;18.20;32.30;;;;;;3054178;19;4583;-29
2023/01/20 04:15:44;;;;;;;;;;;18.20;32.20;;;;;;3054523;19;4551;-30
2023/01/20 04:16:52;;;;;;;;;;;18.20;32.30;;;;;;3054201;19;4548;-30
2023/01/20 04:17:53;;;;;;;;;;;18.20;32.30;;;;;;3054086;19;4504;-31
2023/01/20 04:18:53;;;;;;;;;;;18.20;32.30;;;;;;3054285;19;4493;-30
2023/01/20 04:19:54;;;;;;;;;;;18.20;32.40;;;;;;3054302;19;4459;-31
2023/01/20 04:21:00;;;;;;;;;;;18.20;32.30;;;;;;3054267;19;4666;-31
2023/01/20 04:22:05;;;;;;;;;;;18.30;32.40;;;;;;3053785;19;4479;-29
2023/01/20 04:23:06;;;;;;;;;;;18.30;32.30;;;;;;3054421;19;4428;-31
2023/01/20 04:24:15;;;;;;;;;;;18.30;32.20;;;;;;3052834;19;4531;-30
2023/01/20 04:25:30;;;;;;;;;;;18.30;32.20;;;;;;3054986;19;4508;-33
2023/01/20 04:26:30;;;;;;;;;;;18.30;32.20;;;;;;3054730;19;4476;-29
2023/01/20 04:27:31;;;;;;;;;;;18.30;32.20;;;;;;3053482;19;4558;-29
2023/01/20 04:28:31;;;;;;;;;;;18.30;32.20;;;;;;3053992;19;4531;-29
2023/01/20 04:29:32;;;;;;;;;;;18.30;32.20;;;;;;3053399;19;4522;-29
2023/01/20 04:30:33;;;;;;;;;;;18.30;32.20;;;;;;3054407;19;4512;-30
2023/01/20 04:31:34;;;;;;;;;;;18.30;32.20;;;;;;3054168;19;4497;-29
2023/01/20 04:32:35;;;;;;;;;;;18.30;32.30;;;;;;3054841;19;4574;-31
2023/01/20 04:33:37;;;;;;;;;;;18.30;32.20;;;;;;3054083;19;4537;-29
2023/01/20 04:34:38;;;;;;;;;;;18.30;32.30;;;;;;3054572;19;4556;-30
2023/01/20 04:35:38;;;;;;;;;;;18.20;32.20;;;;;;3054434;19;4548;-30
2023/01/20 04:36:39;;;;;;;;;;;18.20;32.20;;;;;;3053585;19;4382;-30
2023/01/20 04:37:40;;;;;;;;;;;18.20;32.20;;;;;;3053701;19;4355;-29
2023/01/20 04:38:40;;;;;;;;;;;18.20;32.20;;;;;;3054784;19;4541;-31
2023/01/20 04:39:41;;;;;;;;;;;18.10;32.30;;;;;;3054159;19;4489;-30
2023/01/20 04:40:41;;;;;;;;;;;18.10;32.40;;;;;;3054015;19;4549;-29
2023/01/20 04:41:42;;;;;;;;;;;18.10;32.30;;;;;;3053721;19;4391;-29
2023/01/20 04:42:43;;;;;;;;;;;18.10;32.70;;;;;;3053866;19;4490;-30
2023/01/20 04:43:44;;;;;;;;;;;18.10;32.40;;;;;;3054657;19;4553;-30
2023/01/20 04:44:45;;;;;;;;;;;18.10;32.40;;;;;;3054651;19;4472;-29
2023/01/20 04:45:45;;;;;;;;;;;18.10;32.40;;;;;;3054744;19;4490;-33
2023/01/20 04:46:46;;;;;;;;;;;18.10;32.40;;;;;;3054997;19;4649;-32
2023/01/20 04:47:46;;;;;;;;;;;18.10;32.30;;;;;;3054316;19;4664;-30
2023/01/20 04:48:47;;;;;;;;;;;18.10;32.30;;;;;;3054337;19;4495;-29
2023/01/20 04:49:48;;;;;;;;;;;18.20;32.70;;;;;;3054810;19;4632;-31
2023/01/20 04:50:48;;;;;;;;;;;18.20;32.30;;;;;;3053466;19;4650;-29
2023/01/20 04:51:49;;;;;;;;;;;18.20;32.20;;;;;;3054268;19;4549;-32
2023/01/20 04:52:53;;;;;;;;;;;18.20;32.30;;;;;;3053914;19;4512;-32
2023/01/20 04:53:57;;;;;;;;;;;18.20;32.20;;;;;;3053564;19;4506;-30
2023/01/20 04:54:58;;;;;;;;;;;18.20;32.20;;;;;;3053842;19;4475;-29
2023/01/20 04:55:58;;;;;;;;;;;18.20;32.20;;;;;;3054718;19;4304;-30
2023/01/20 04:56:59;;;;;;;;;;;18.20;32.20;;;;;;3054124;19;4553;-30
2023/01/20 04:58:00;;;;;;;;;;;18.20;32.20;;;;;;3054362;19;4478;-29
2023/01/20 04:59:00;;;;;;;;;;;18.20;32.30;;;;;;3053320;19;4489;-31
2023/01/20 05:00:01;;;;;;;;;;;18.30;32.30;;;;;;3054117;19;4448;-30
2023/01/20 05:01:02;;;;;;;;;;;18.30;32.20;;;;;;3053955;19;4498;-30
2023/01/20 05:02:02;;;;;;;;;;;18.30;32.20;;;;;;3054594;19;4479;-29
2023/01/20 05:03:04;;;;;;;;;;;18.30;32.20;;;;;;3054636;19;4438;-33
2023/01/20 05:04:05;;;;;;;;;;;18.30;32.20;;;;;;3054249;19;4442;-28
2023/01/20 05:05:06;;;;;;;;;;;18.30;32.20;;;;;;3053422;19;18298;-29
2023/01/20 05:06:11;;;;;;;;;;;18.40;32.20;;;;;;3054687;19;904;-33
2023/01/20 05:07:12;;;;;;;;;;;18.40;32.20;;;;;;3052490;19;4517;-29
2023/01/20 05:08:13;;;;;;;;;;;18.40;32.10;;;;;;3053359;19;4489;-31
2023/01/20 05:09:14;;;;;;;;;;;18.40;32.00;;;;;;3054479;19;4475;-33
2023/01/20 05:10:15;;;;;;;;;;;18.40;32.00;;;;;;3054057;19;4588;-29
2023/01/20 05:11:16;;;;;;;;;;;18.40;32.00;;;;;;3053402;19;4545;-33
2023/01/20 05:12:16;;;;;;;;;;;18.40;32.10;;;;;;3051969;19;4662;-30
2023/01/20 05:13:17;;;;;;;;;;;18.40;32.10;;;;;;3053716;19;4541;-29
2023/01/20 05:14:17;;;;;;;;;;;18.40;32.10;;;;;;3053687;19;4467;-30
2023/01/20 05:15:18;;;;;;;;;;;18.40;32.10;;;;;;3053767;19;4521;-31
2023/01/20 05:16:22;;;;;;;;;;;18.40;32.00;;;;;;3053687;19;4568;-30
2023/01/20 05:17:23;;;;;;;;;;;18.40;32.00;;;;;;3052036;19;4665;-29
2023/01/20 05:18:24;;;;;;;;;;;18.50;32.10;;;;;;3054586;19;4602;-29
2023/01/20 05:19:24;;;;;;;;;;;18.50;32.10;;;;;;3054235;19;4545;-28
2023/01/20 05:20:25;;;;;;;;;;;18.50;32.10;;;;;;3054130;19;4602;-31
2023/01/20 05:21:26;;;;;;;;;;;18.50;32.00;;;;;;3054879;19;4524;-31
2023/01/20 05:22:28;;;;;;;;;;;18.50;32.00;;;;;;3056981;19;4460;-30
2023/01/20 05:23:28;;;;;;;;;;;18.50;32.10;;;;;;3057028;19;4503;-33
2023/01/20 05:24:29;;;;;;;;;;;18.50;32.00;;;;;;3056214;19;4498;-29
2023/01/20 05:25:30;;;;;;;;;;;18.50;32.00;;;;;;3057071;19;4541;-30
2023/01/20 05:26:31;;;;;;;;;;;18.60;31.90;;;;;;3056580;19;4505;-29
2023/01/20 05:27:35;;;;;;;;;;;18.60;32.60;;;;;;3056473;19;4590;-30
2023/01/20 05:28:36;;;;;;;;;;;18.60;32.50;;;;;;3056444;19;4537;-29
2023/01/20 05:29:36;;;;;;;;;;;18.60;31.90;;;;;;3057251;19;4534;-31
2023/01/20 05:30:37;;;;;;;;;;;18.50;31.90;;;;;;3057421;19;4478;-32
2023/01/20 05:31:41;;;;;;;;;;;18.60;31.90;;;;;;3055251;19;4546;-30
2023/01/20 05:32:44;;;;;;;;;;;18.60;31.80;;;;;;3057295;19;4548;-29
2023/01/20 05:33:44;;;;;;;;;;;18.50;31.80;;;;;;3056960;19;4580;-29
2023/01/20 05:34:45;;;;;;;;;;;18.50;31.80;;;;;;3056551;19;4483;-31
2023/01/20 05:35:46;;;;;;;;;;;18.50;32.00;;;;;;3057030;19;4387;-30
2023/01/20 05:36:51;;;;;;;;;;;18.50;32.00;;;;;;3056724;19;4378;-30
2023/01/20 05:37:53;;;;;;;;;;;18.40;32.10;;;;;;3056615;19;4456;-30
2023/01/20 05:38:53;;;;;;;;;;;18.40;32.10;;;;;;3056808;19;4299;-30
2023/01/20 05:39:54;;;;;;;;;;;18.50;32.10;;;;;;3056283;19;4469;-30
2023/01/20 05:41:02;;;;;;;;;;;18.50;32.20;;;;;;3057289;19;4470;-30
2023/01/20 05:42:03;;;;;;;;;;;18.50;32.20;;;;;;3057416;19;4589;-30
2023/01/20 05:43:03;;;;;;;;;;;18.50;32.20;;;;;;3056390;19;4435;-29
2023/01/20 05:44:04;;;;;;;;;;;18.60;32.20;;;;;;3057229;19;4482;-29
2023/01/20 05:45:05;;;;;;;;;;;18.60;32.10;;;;;;3055992;19;4426;-30
2023/01/20 05:46:06;;;;;;;;;;;18.60;32.20;;;;;;3056139;19;4491;-29
2023/01/20 05:47:07;;;;;;;;;;;18.70;32.10;;;;;;3056753;19;4692;-30
2023/01/20 05:48:07;;;;;;;;;;;18.80;32.10;;;;;;3056308;19;4356;-33
2023/01/20 05:49:10;;;;;;;;;;;18.80;32.00;;;;;;3057345;19;927;-30
2023/01/20 05:50:11;;;;;;;;;;;18.90;31.90;;;;;;3055783;19;4516;-31
2023/01/20 05:51:11;;;;;;;;;;;18.90;31.80;;;;;;3056924;19;4525;-32
2023/01/20 05:52:12;;;;;;;;;;;19.00;31.80;;;;;;3056468;19;4464;-30
2023/01/20 05:53:13;;;;;;;;;;;19.00;31.70;;;;;;3056593;19;4533;-29
2023/01/20 05:54:13;;;;;;;;;;;19.00;31.60;;;;;;3056853;19;4499;-30
2023/01/20 05:55:14;;;;;;;;;;;19.00;31.60;;;;;;3056605;19;4530;-33
2023/01/20 05:56:15;;;;;;;;;;;19.00;31.60;;;;;;3056464;19;4500;-30
2023/01/20 05:57:17;;;;;;;;;;;19.00;31.60;;;;;;3056834;19;4542;-30
2023/01/20 05:58:17;;;;;;;;;;;19.00;31.50;;;;;;3056771;19;4520;-29
2023/01/20 05:59:18;;;;;;;;;;;19.00;31.50;;;;;;3056504;19;4533;-29
2023/01/20 06:00:19;;;;;;;;;;;19.00;31.50;;;;;;3056810;19;4574;-29
2023/01/20 06:01:19;;;;;;;;;;;18.90;31.60;;;;;;3056843;19;4516;-29
2023/01/20 06:02:20;;;;;;;;;;;18.90;31.50;;;;;;3057102;19;4686;-30
2023/01/20 06:03:21;;;;;;;;;;;18.90;31.40;;;;;;3055714;19;4749;-30
2023/01/20 06:04:21;;;;;;;;;;;18.90;32.00;;;;;;3056291;19;4361;-30
2023/01/20 06:05:22;;;;;;;;;;;18.90;31.50;;;;;;3055940;19;4530;-30
2023/01/20 06:06:23;;;;;;;;;;;18.90;31.50;;;;;;3056838;19;4472;-29
2023/01/20 06:07:23;;;;;;;;;;;18.80;31.50;;;;;;3055389;19;4652;-30
2023/01/20 06:08:24;;;;;;;;;;;18.80;31.70;;;;;;3056014;19;4487;-28
2023/01/20 06:09:25;;;;;;;;;;;18.80;31.70;;;;;;3055954;19;4551;-30
2023/01/20 06:10:28;;;;;;;;;;;18.80;31.80;;;;;;3057017;19;4493;-30
2023/01/20 06:11:29;;;;;;;;;;;18.80;31.80;;;;;;3056395;19;4597;-29
2023/01/20 06:12:29;;;;;;;;;;;18.90;31.80;;;;;;3055700;19;4668;-31
2023/01/20 06:13:30;;;;;;;;;;;18.90;31.80;;;;;;3055332;19;4912;-29